createdAt,value
2018-08-23T00:01:05.610Z,96848.73
2018-08-23T00:02:41.815Z,96847.26
2018-08-23T00:04:18.383Z,96844.58
2018-08-23T00:05:59.054Z,96848.06
2018-08-23T00:07:37.041Z,96839.63
2018-08-23T00:09:13.631Z,96839.00
2018-08-23T00:10:53.707Z,96839.03
2018-08-23T00:12:34.100Z,96837.65
2018-08-23T00:14:12.266Z,96832.11
2018-08-23T00:15:50.030Z,96830.45
2018-08-23T00:17:26.774Z,96832.49
2018-08-23T00:19:03.706Z,96831.72
2018-08-23T00:20:40.398Z,96826.38
2018-08-23T00:22:32.428Z,96827.93
2018-08-23T00:24:15.959Z,96821.48
2018-08-23T00:25:52.107Z,96820.53
2018-08-23T00:27:33.389Z,96813.51
2018-08-23T00:29:18.313Z,96820.71
2018-08-23T00:30:54.433Z,96816.89
2018-08-23T00:32:33.814Z,96816.28
2018-08-23T00:34:11.083Z,96820.98
2018-08-23T00:35:47.328Z,96817.29
2018-08-23T00:37:24.027Z,96813.84
2018-08-23T00:39:00.465Z,96815.16
2018-08-23T00:40:47.125Z,96814.02
2018-08-23T00:42:25.104Z,96810.97
2018-08-23T00:44:01.651Z,96813.53
2018-08-23T00:45:38.473Z,96813.97
2018-08-23T00:47:17.067Z,96817.70
2018-08-23T00:48:52.432Z,96810.31
2018-08-23T00:51:07.861Z,96808.86
2018-08-23T00:52:44.977Z,96805.55
2018-08-23T00:54:22.133Z,96803.12
2018-08-23T00:56:16.413Z,96809.85
2018-08-23T00:57:52.657Z,96807.02
2018-08-23T00:59:28.526Z,96805.64
2018-08-23T01:01:04.039Z,96799.97
2018-08-23T01:02:39.948Z,96802.11
2018-08-23T01:04:19.520Z,96802.11
2018-08-23T01:05:54.860Z,96800.55
2018-08-23T01:07:33.818Z,96794.89
2018-08-23T01:09:10.683Z,96799.80
2018-08-23T01:10:48.112Z,96791.09
2018-08-23T01:12:24.250Z,96794.55
2018-08-23T01:14:00.173Z,96797.66
2018-08-23T01:15:35.533Z,96798.91
2018-08-23T01:17:16.492Z,96791.52
2018-08-23T01:18:51.731Z,96789.74
2018-08-23T01:20:28.717Z,96788.36
2018-08-23T01:24:02.627Z,96789.74
2018-08-23T01:25:40.468Z,96787.74
2018-08-23T01:27:25.281Z,96789.99
2018-08-23T01:29:03.522Z,96780.42
2018-08-23T01:30:39.483Z,96779.38
2018-08-23T01:32:25.566Z,96778.69
2018-08-23T01:34:01.106Z,96783.81
2018-08-23T01:35:36.412Z,96775.08
2018-08-23T01:37:12.131Z,96772.52
2018-08-23T01:38:47.200Z,96775.05
2018-08-23T01:40:22.807Z,96769.25
2018-08-23T01:41:58.922Z,96764.11
2018-08-23T01:43:34.583Z,96767.43
2018-08-23T01:45:13.694Z,96758.79
2018-08-23T01:46:48.695Z,96766.05
2018-08-23T01:48:24.640Z,96762.92
2018-08-23T01:50:00.026Z,96765.34
2018-08-23T01:51:36.391Z,96766.67
2018-08-23T01:53:12.413Z,96762.73
2018-08-23T01:54:49.394Z,96758.93
2018-08-23T01:56:25.257Z,96763.13
2018-08-23T02:04:08.386Z,96759.07
2018-08-23T02:05:43.963Z,96757.78
2018-08-23T02:07:20.103Z,96758.53
2018-08-23T02:08:55.520Z,96755.08
2018-08-23T02:10:31.878Z,96755.89
2018-08-23T02:12:07.266Z,96754.12
2018-08-23T02:13:42.412Z,96750.52
2018-08-23T02:15:17.821Z,96758.92
2018-08-23T02:16:55.289Z,96754.51
2018-08-23T02:18:30.859Z,96755.07
2018-08-23T02:20:06.091Z,96754.64
2018-08-23T02:21:41.958Z,96751.80
2018-08-23T02:23:17.245Z,96757.03
2018-08-23T02:24:52.802Z,96753.03
2018-08-23T02:26:28.189Z,96751.94
2018-08-23T02:29:42.137Z,96748.52
2018-08-23T02:31:19.701Z,96754.31
2018-08-23T02:32:55.979Z,96753.75
2018-08-23T02:34:34.903Z,96747.33
2018-08-23T02:36:23.707Z,96754.98
2018-08-23T02:37:59.098Z,96754.98
2018-08-23T02:39:35.422Z,96747.75
2018-08-23T02:41:10.372Z,96749.70
2018-08-23T02:42:45.439Z,96747.95
2018-08-23T02:44:20.467Z,96746.09
2018-08-23T02:45:55.933Z,96734.39
2018-08-23T02:47:32.852Z,96733.58
2018-08-23T02:49:08.315Z,96732.05
2018-08-23T02:50:43.717Z,96726.53
2018-08-23T02:52:19.192Z,96727.49
2018-08-23T02:53:54.506Z,96726.31
2018-08-23T02:55:30.353Z,96730.78
2018-08-23T02:57:09.733Z,96733.02
2018-08-23T02:59:08.333Z,96735.20
2018-08-23T03:00:46.648Z,96729.97
2018-08-23T03:02:23.094Z,96724.80
2018-08-23T03:04:08.337Z,96721.70
2018-08-23T03:05:43.635Z,96718.46
2018-08-23T03:07:21.594Z,96718.52
2018-08-23T03:08:56.699Z,96721.70
2018-08-23T03:10:32.089Z,96712.44
2018-08-23T03:12:11.017Z,96710.39
2018-08-23T03:13:46.323Z,96715.20
2018-08-23T03:15:25.431Z,96713.14
2018-08-23T03:17:19.694Z,96702.16
2018-08-23T03:18:55.045Z,96701.89
2018-08-23T03:20:30.768Z,96709.91
2018-08-23T03:22:05.980Z,96708.64
2018-08-23T03:23:46.626Z,96708.72
2018-08-23T03:25:22.665Z,96709.48
2018-08-23T03:26:57.868Z,96699.12
2018-08-23T03:28:35.774Z,96703.96
2018-08-23T03:30:13.943Z,96699.32
2018-08-23T03:31:50.131Z,96694.57
2018-08-23T03:33:25.147Z,96696.79
2018-08-23T03:35:00.972Z,96695.32
2018-08-23T03:36:35.949Z,96700.67
2018-08-23T03:38:11.290Z,96705.69
2018-08-23T03:39:46.835Z,96697.95
2018-08-23T03:41:22.910Z,96700.70
2018-08-23T03:42:58.168Z,96707.21
2018-08-23T03:44:39.907Z,96704.93
2018-08-23T03:46:15.333Z,96706.31
2018-08-23T03:47:52.848Z,96706.92
2018-08-23T03:49:36.881Z,96701.13
2018-08-23T03:51:12.168Z,96699.30
2018-08-23T03:52:49.548Z,96699.77
2018-08-23T03:54:24.643Z,96700.86
2018-08-23T03:56:11.471Z,96710.44
2018-08-23T03:57:54.321Z,96702.84
2018-08-23T03:59:30.423Z,96710.67
2018-08-23T04:01:09.345Z,96706.45
2018-08-23T04:02:45.333Z,96705.73
2018-08-23T04:04:21.851Z,96698.55
2018-08-23T04:06:01.420Z,96698.70
2018-08-23T04:07:37.197Z,96698.28
2018-08-23T04:09:12.962Z,96703.10
2018-08-23T04:10:48.162Z,96703.88
2018-08-23T04:12:23.083Z,96706.81
2018-08-23T04:13:58.378Z,96699.72
2018-08-23T04:15:33.581Z,96698.86
2018-08-23T04:17:10.436Z,96699.25
2018-08-23T04:18:45.464Z,96701.43
2018-08-23T04:20:20.443Z,96701.64
2018-08-23T04:21:55.564Z,96697.84
2018-08-23T04:23:30.521Z,96695.88
2018-08-23T04:25:06.649Z,96700.73
2018-08-23T04:26:41.794Z,96700.52
2018-08-23T04:28:17.489Z,96700.52
2018-08-23T04:29:52.794Z,96697.36
2018-08-23T04:31:27.908Z,96707.52
2018-08-23T04:33:03.206Z,96702.66
2018-08-23T04:34:38.495Z,96702.88
2018-08-23T04:36:34.836Z,96704.11
2018-08-23T04:38:09.749Z,96702.15
2018-08-23T04:39:50.437Z,96693.45
2018-08-23T04:41:25.709Z,96704.28
2018-08-23T04:43:01.029Z,96698.45
2018-08-23T04:44:43.254Z,96699.83
2018-08-23T04:46:23.477Z,96702.91
2018-08-23T04:48:05.641Z,96704.28
2018-08-23T04:49:41.593Z,96698.20
2018-08-23T04:51:16.615Z,96706.03
2018-08-23T04:52:51.706Z,96705.48
2018-08-23T04:54:27.194Z,96707.47
2018-08-23T04:56:02.451Z,96702.11
2018-08-23T04:57:37.907Z,96695.77
2018-08-23T04:59:13.059Z,96698.23
2018-08-23T05:00:52.585Z,96699.47
2018-08-23T05:02:28.139Z,96696.72
2018-08-23T05:04:03.192Z,96700.33
2018-08-23T05:05:38.319Z,96702.91
2018-08-23T05:07:14.118Z,96705.11
2018-08-23T05:08:49.547Z,96700.98
2018-08-23T05:10:25.979Z,96705.88
2018-08-23T05:12:02.745Z,96698.98
2018-08-23T05:13:38.235Z,96703.12
2018-08-23T05:15:16.712Z,96699.75
2018-08-23T05:16:51.874Z,96696.05
2018-08-23T05:18:28.615Z,96694.23
2018-08-23T05:20:04.150Z,96697.13
2018-08-23T05:21:39.964Z,96690.52
2018-08-23T05:23:14.991Z,96697.19
2018-08-23T05:24:50.155Z,96695.09
2018-08-23T05:26:25.144Z,96697.92
2018-08-23T05:28:14.394Z,96694.50
2018-08-23T05:29:50.397Z,96692.70
2018-08-23T05:31:25.884Z,96697.69
2018-08-23T05:33:05.984Z,96694.23
2018-08-23T05:34:41.568Z,96691.42
2018-08-23T05:36:17.777Z,96691.48
2018-08-23T05:37:52.761Z,96689.01
2018-08-23T05:39:38.783Z,96692.05
2018-08-23T05:41:14.887Z,96695.36
2018-08-23T05:42:55.339Z,96695.56
2018-08-23T05:44:30.514Z,96697.36
2018-08-23T05:46:06.930Z,96694.25
2018-08-23T05:47:42.743Z,96698.19
2018-08-23T05:49:18.831Z,96696.47
2018-08-23T05:50:55.866Z,96695.77
2018-08-23T05:52:31.572Z,96698.36
2018-08-23T05:54:09.001Z,96691.82
2018-08-23T05:55:46.272Z,96699.00
2018-08-23T05:57:23.386Z,96690.83
2018-08-23T05:59:05.975Z,96687.00
2018-08-23T06:00:43.031Z,96683.61
2018-08-23T06:02:19.527Z,96688.34
2018-08-23T06:03:57.452Z,96682.50
2018-08-23T06:05:33.913Z,96675.54
2018-08-23T06:07:09.473Z,96679.55
2018-08-23T06:08:49.466Z,96677.27
2018-08-23T06:10:27.602Z,96676.78
2018-08-23T06:12:02.753Z,96677.36
2018-08-23T06:13:38.393Z,96670.84
2018-08-23T06:15:15.963Z,96667.76
2018-08-23T06:16:57.621Z,96669.20
2018-08-23T06:18:32.704Z,96665.03
2018-08-23T06:20:08.358Z,96663.66
2018-08-23T06:21:43.712Z,96661.55
2018-08-23T06:23:19.999Z,96659.63
2018-08-23T06:24:55.692Z,96662.14
2018-08-23T06:26:37.678Z,96666.62
2018-08-23T06:28:25.403Z,96659.17
2018-08-23T06:30:00.722Z,96661.44
2018-08-23T06:31:36.886Z,96659.23
2018-08-23T06:33:12.161Z,96657.53
2018-08-23T06:34:49.320Z,96663.39
2018-08-23T06:36:25.408Z,96666.14
2018-08-23T06:38:02.355Z,96669.62
2018-08-23T06:39:38.807Z,96667.38
2018-08-23T06:41:14.965Z,96662.76
2018-08-23T06:43:00.429Z,96658.19
2018-08-23T06:44:44.281Z,96663.64
2018-08-23T06:46:20.205Z,96661.71
2018-08-23T06:47:59.640Z,96661.84
2018-08-23T06:49:34.810Z,96660.67
2018-08-23T06:51:11.912Z,96662.86
2018-08-23T06:52:50.722Z,96667.50
2018-08-23T06:54:26.646Z,96661.09
2018-08-23T06:56:02.613Z,96667.70
2018-08-23T06:57:46.259Z,96663.03
2018-08-23T06:59:24.791Z,96669.70
2018-08-23T07:01:05.103Z,96669.41
2018-08-23T07:02:45.723Z,96656.84
2018-08-23T07:04:34.365Z,96657.12
2018-08-23T07:06:10.132Z,96654.09
2018-08-23T07:07:45.933Z,96652.36
2018-08-23T07:09:25.099Z,96655.30
2018-08-23T07:11:22.488Z,96660.00
2018-08-23T07:13:00.928Z,96655.06
2018-08-23T07:14:40.674Z,96650.53
2018-08-23T07:16:16.404Z,96656.53
2018-08-23T07:17:52.225Z,96653.09
2018-08-23T07:19:31.406Z,96653.33
2018-08-23T07:21:08.624Z,96651.34
2018-08-23T07:22:46.691Z,96652.54
2018-08-23T07:26:21.124Z,96650.97
2018-08-23T07:27:56.514Z,96653.98
2018-08-23T07:29:32.568Z,96663.56
2018-08-23T07:31:09.403Z,96659.91
2018-08-23T07:32:48.421Z,96667.44
2018-08-23T07:34:25.863Z,96662.23
2018-08-23T07:36:16.299Z,96658.00
2018-08-23T07:37:56.948Z,96661.39
2018-08-23T07:39:36.180Z,96661.23
2018-08-23T07:41:12.309Z,96664.17
2018-08-23T07:42:49.815Z,96667.45
2018-08-23T07:44:26.018Z,96665.63
2018-08-23T07:46:02.440Z,96662.84
2018-08-23T07:47:45.381Z,96673.36
2018-08-23T07:49:20.324Z,96673.98
2018-08-23T07:50:56.690Z,96669.84
2018-08-23T07:52:35.824Z,96669.43
2018-08-23T07:54:16.708Z,96665.83
2018-08-23T07:55:52.013Z,96668.81
2018-08-23T07:57:39.758Z,96666.61
2018-08-23T07:59:16.282Z,96666.48
2018-08-23T08:00:53.562Z,96667.85
2018-08-23T08:02:32.125Z,96662.51
2018-08-23T08:04:15.818Z,96669.25
2018-08-23T08:05:54.150Z,96670.88
2018-08-23T08:07:35.660Z,96670.15
2018-08-23T08:09:13.796Z,96672.19
2018-08-23T08:10:49.128Z,96675.16
2018-08-23T08:12:38.338Z,96674.55
2018-08-23T08:14:20.223Z,96674.48
2018-08-23T08:15:58.564Z,96673.89
2018-08-23T08:17:38.310Z,96681.05
2018-08-23T08:19:13.669Z,96677.80
2018-08-23T08:20:55.630Z,96673.28
2018-08-23T08:22:31.704Z,96680.11
2018-08-23T08:24:08.326Z,96678.27
2018-08-23T08:25:45.423Z,96677.59
2018-08-23T08:27:23.323Z,96683.23
2018-08-23T08:28:59.262Z,96687.55
2018-08-23T08:30:47.481Z,96678.09
2018-08-23T08:32:23.107Z,96681.50
2018-08-23T08:34:01.427Z,96679.09
2018-08-23T08:35:39.603Z,96674.27
2018-08-23T08:37:14.561Z,96667.53
2018-08-23T08:38:54.459Z,96673.01
2018-08-23T08:40:31.951Z,96675.23
2018-08-23T08:42:10.009Z,96668.99
2018-08-23T08:43:47.310Z,96666.39
2018-08-23T08:45:27.962Z,96666.73
2018-08-23T08:47:05.078Z,96660.91
2018-08-23T08:48:41.614Z,96663.68
2018-08-23T08:50:17.671Z,96664.94
2018-08-23T08:51:54.237Z,96662.28
2018-08-23T08:53:36.451Z,96664.33
2018-08-23T08:55:16.737Z,96666.34
2018-08-23T08:56:53.986Z,96667.84
2018-08-23T08:58:29.267Z,96664.39
2018-08-23T09:00:06.870Z,96668.97
2018-08-23T09:01:52.635Z,96663.42
2018-08-23T09:03:33.625Z,96659.59
2018-08-23T09:05:17.929Z,96657.94
2018-08-23T09:06:54.617Z,96659.52
2018-08-23T09:08:30.345Z,96650.46
2018-08-23T09:10:08.996Z,96658.05
2018-08-23T09:11:51.449Z,96653.40
2018-08-23T09:13:38.321Z,96660.01
2018-08-23T09:15:17.076Z,96648.45
2018-08-23T09:16:56.430Z,96643.78
2018-08-23T09:18:35.424Z,96643.44
2018-08-23T09:20:17.408Z,96653.22
2018-08-23T09:22:06.163Z,96649.80
2018-08-23T09:23:43.994Z,96650.05
2018-08-23T09:25:31.137Z,96651.78
2018-08-23T09:35:18.752Z,96640.43
2018-08-23T09:37:06.505Z,96631.45
2018-08-23T09:38:49.764Z,96638.13
2018-08-23T09:40:28.245Z,96625.66
2018-08-23T09:42:12.294Z,96632.64
2018-08-23T09:43:55.109Z,96628.47
2018-08-23T09:45:33.783Z,96627.55
2018-08-23T09:47:12.214Z,96636.66
2018-08-23T09:48:53.173Z,96628.45
2018-08-23T09:50:33.637Z,96625.23
2018-08-23T09:52:17.946Z,96621.91
2018-08-23T09:53:55.852Z,96620.85
2018-08-23T09:55:35.324Z,96623.28
2018-08-23T09:57:21.548Z,96627.45
2018-08-23T09:59:07.500Z,96626.73
2018-08-23T10:00:51.975Z,96621.16
2018-08-23T10:02:36.284Z,96620.95
2018-08-23T10:04:19.649Z,96615.22
2018-08-23T10:06:03.405Z,96617.86
2018-08-23T10:07:46.165Z,96616.70
2018-08-23T10:09:24.490Z,96625.01
2018-08-23T10:13:12.249Z,96622.88
2018-08-23T10:14:52.661Z,96609.01
2018-08-23T10:16:34.168Z,96607.23
2018-08-23T10:18:15.515Z,96609.95
2018-08-23T10:19:57.940Z,96612.97
2018-08-23T10:21:40.841Z,96608.85
2018-08-23T10:29:29.326Z,96607.05
2018-08-23T10:31:05.600Z,96594.41
2018-08-23T10:32:43.729Z,96594.10
2018-08-23T10:34:19.862Z,96589.67
2018-08-23T10:35:58.069Z,96592.91
2018-08-23T10:37:35.823Z,96603.22
2018-08-23T10:39:15.894Z,96607.22
2018-08-23T10:40:55.351Z,96606.89
2018-08-23T10:42:32.594Z,96602.20
2018-08-23T10:44:10.278Z,96602.05
2018-08-23T10:45:46.465Z,96594.10
2018-08-23T10:48:26.548Z,96599.59
2018-08-23T10:50:01.879Z,96599.05
2018-08-23T10:51:40.365Z,96599.63
2018-08-23T10:53:17.253Z,96596.16
2018-08-23T10:54:57.180Z,96594.86
2018-08-23T10:56:36.052Z,96596.13
2018-08-23T10:58:12.967Z,96589.75
2018-08-23T10:59:49.695Z,96591.69
2018-08-23T11:01:25.113Z,96587.83
2018-08-23T11:03:06.733Z,96587.75
2018-08-23T11:04:49.555Z,96595.95
2018-08-23T11:06:27.906Z,96601.78
2018-08-23T11:08:10.474Z,96598.73
2018-08-23T11:09:52.559Z,96606.47
2018-08-23T11:11:33.529Z,96593.94
2018-08-23T11:13:15.813Z,96599.30
2018-08-23T11:14:52.524Z,96596.45
2018-08-23T11:18:38.777Z,96593.83
2018-08-23T11:20:23.008Z,96593.31
2018-08-23T11:22:01.222Z,96592.31
2018-08-23T11:23:37.201Z,96599.95
2018-08-23T11:25:16.518Z,96592.58
2018-08-23T11:26:54.797Z,96601.76
2018-08-23T11:28:32.754Z,96601.02
2018-08-23T11:30:08.771Z,96589.02
2018-08-23T11:31:44.681Z,96588.42
2018-08-23T11:33:22.330Z,96580.27
2018-08-23T11:34:58.247Z,96580.80
2018-08-23T11:36:35.582Z,96581.64
2018-08-23T11:38:12.891Z,96583.70
2018-08-23T11:39:52.914Z,96581.73
2018-08-23T11:41:31.807Z,96582.58
2018-08-23T11:43:12.656Z,96583.84
2018-08-23T11:44:49.203Z,96586.75
2018-08-23T11:46:26.213Z,96581.44
2018-08-23T11:48:02.045Z,96577.66
2018-08-23T11:49:41.936Z,96572.30
2018-08-23T11:51:19.603Z,96570.70
2018-08-23T11:52:55.364Z,96576.45
2018-08-23T11:54:31.236Z,96579.80
2018-08-23T11:56:11.248Z,96573.00
2018-08-23T11:57:48.339Z,96574.00
2018-08-23T11:59:24.618Z,96574.48
2018-08-23T12:01:07.708Z,96575.16
2018-08-23T12:02:47.253Z,96565.49
2018-08-23T12:04:22.350Z,96571.76
2018-08-23T12:05:57.731Z,96563.21
2018-08-23T12:07:35.606Z,96556.03
2018-08-23T12:09:17.313Z,96570.25
2018-08-23T12:11:00.818Z,96571.34
2018-08-23T12:12:38.064Z,96571.06
2018-08-23T12:14:16.185Z,96573.67
2018-08-23T12:15:51.801Z,96569.64
2018-08-23T12:17:27.842Z,96569.33
2018-08-23T12:19:09.496Z,96569.74
2018-08-23T12:20:46.588Z,96559.05
2018-08-23T12:22:29.687Z,96558.43
2018-08-23T12:24:06.511Z,96558.08
2018-08-23T12:25:44.099Z,96554.11
2018-08-23T12:27:20.869Z,96557.11
2018-08-23T12:29:01.259Z,96547.44
2018-08-23T12:30:39.293Z,96547.13
2018-08-23T12:32:15.898Z,96554.04
2018-08-23T12:33:53.490Z,96554.44
2018-08-23T12:35:30.379Z,96554.13
2018-08-23T12:37:10.702Z,96547.53
2018-08-23T12:38:54.822Z,96546.92
2018-08-23T12:40:37.865Z,96548.58
2018-08-23T12:43:16.251Z,96546.95
2018-08-23T12:44:53.520Z,96544.62
2018-08-23T12:46:29.517Z,96543.05
2018-08-23T12:48:07.511Z,96537.41
2018-08-23T12:49:45.098Z,96540.23
2018-08-23T12:51:20.818Z,96543.09
2018-08-23T12:53:01.171Z,96541.73
2018-08-23T12:54:37.743Z,96539.62
2018-08-23T12:56:17.445Z,96539.66
2018-08-23T12:57:53.450Z,96533.67
2018-08-23T12:59:30.815Z,96534.17
2018-08-23T13:01:07.555Z,96529.40
2018-08-23T13:02:43.885Z,96517.47
2018-08-23T13:04:22.979Z,96516.75
2018-08-23T13:06:00.945Z,96528.18
2018-08-23T13:07:37.543Z,96521.39
2018-08-23T13:09:15.010Z,96505.73
2018-08-23T13:10:53.235Z,96515.90
2018-08-23T13:12:32.059Z,96508.12
2018-08-23T13:14:10.225Z,96514.66
2018-08-23T13:15:47.860Z,96519.61
2018-08-23T13:17:24.478Z,96516.92
2018-08-23T13:19:00.452Z,96516.17
2018-08-23T13:20:35.959Z,96515.97
2018-08-23T13:22:12.937Z,96516.44
2018-08-23T13:23:54.926Z,96504.64
2018-08-23T13:25:30.878Z,96507.56
2018-08-23T13:27:07.271Z,96510.48
2018-08-23T13:28:50.392Z,96517.71
2018-08-23T13:30:30.863Z,96506.52
2018-08-23T13:32:08.168Z,96513.33
2018-08-23T13:33:46.283Z,96501.90
2018-08-23T13:35:26.356Z,96506.88
2018-08-23T13:37:02.987Z,96500.44
2018-08-23T13:38:43.836Z,96492.86
2018-08-23T13:40:25.583Z,96494.60
2018-08-23T13:42:03.250Z,96498.22
2018-08-23T13:43:41.159Z,96493.61
2018-08-23T13:45:20.596Z,96497.11
2018-08-23T13:46:56.334Z,96492.34
2018-08-23T13:48:37.097Z,96487.63
2018-08-23T13:50:16.806Z,96489.69
2018-08-23T13:51:53.284Z,96485.01
2018-08-23T13:53:31.280Z,96490.59
2018-08-23T13:55:09.532Z,96496.72
2018-08-23T13:56:50.526Z,96488.41
2018-08-23T13:58:27.301Z,96494.15
2018-08-23T14:00:05.062Z,96488.20
2018-08-23T14:01:42.630Z,96492.30
2018-08-23T14:03:22.281Z,96488.13
2018-08-23T14:05:01.145Z,96480.86
2018-08-23T14:06:37.697Z,96478.71
2018-08-23T14:08:14.765Z,96475.62
2018-08-23T14:09:50.328Z,96473.35
2018-08-23T14:11:27.726Z,96471.59
2018-08-23T14:13:04.620Z,96464.59
2018-08-23T14:14:42.947Z,96471.63
2018-08-23T14:16:25.805Z,96475.56
2018-08-23T14:18:03.331Z,96464.84
2018-08-23T14:19:41.619Z,96462.23
2018-08-23T14:21:21.394Z,96463.22
2018-08-23T14:23:06.118Z,96471.47
2018-08-23T14:24:47.446Z,96470.28
2018-08-23T14:26:29.304Z,96465.13
2018-08-23T14:28:09.635Z,96469.26
2018-08-23T14:29:49.365Z,96466.08
2018-08-23T14:31:29.329Z,96468.91
2018-08-23T14:33:11.405Z,96468.99
2018-08-23T14:34:51.926Z,96468.33
2018-08-23T14:36:35.261Z,96464.05
2018-08-23T14:38:12.477Z,96458.90
2018-08-23T14:39:49.789Z,96471.84
2018-08-23T14:41:26.887Z,96459.88
2018-08-23T14:43:03.218Z,96454.89
2018-08-23T14:44:40.454Z,96468.75
2018-08-23T14:46:25.584Z,96463.41
2018-08-23T14:48:21.704Z,96467.05
2018-08-23T14:49:59.456Z,96463.00
2018-08-23T14:51:37.506Z,96456.19
2018-08-23T14:53:19.205Z,96448.64
2018-08-23T14:55:05.202Z,96453.41
2018-08-23T14:57:47.267Z,96446.53
2018-08-23T14:59:24.885Z,96443.41
2018-08-23T15:01:02.796Z,96448.41
2018-08-23T15:02:40.659Z,96444.33
2018-08-23T15:04:16.364Z,96440.78
2018-08-23T15:07:47.387Z,96439.27
2018-08-23T15:09:28.859Z,96438.52
2018-08-23T15:11:06.191Z,96429.62
2018-08-23T15:12:50.412Z,96430.62
2018-08-23T15:14:29.587Z,96426.13
2018-08-23T15:16:08.058Z,96426.91
2018-08-23T15:17:47.539Z,96428.15
2018-08-23T15:19:26.407Z,96422.72
2018-08-23T15:21:09.564Z,96429.34
2018-08-23T15:22:50.131Z,96433.97
2018-08-23T15:24:27.311Z,96427.44
2018-08-23T15:26:12.716Z,96428.06
2018-08-23T15:27:51.278Z,96423.03
2018-08-23T15:29:28.385Z,96426.63
2018-08-23T15:31:06.711Z,96425.01
2018-08-23T15:32:43.997Z,96423.28
2018-08-23T15:34:20.201Z,96424.23
2018-08-23T15:35:57.745Z,96419.27
2018-08-23T15:37:35.942Z,96414.56
2018-08-23T15:39:16.247Z,96415.25
2018-08-23T15:40:52.389Z,96411.02
2018-08-23T15:42:29.032Z,96406.03
2018-08-23T15:44:05.603Z,96410.49
2018-08-23T15:45:40.948Z,96403.19
2018-08-23T15:47:21.187Z,96404.22
2018-08-23T15:49:01.258Z,96398.61
2018-08-23T15:50:37.168Z,96405.80
2018-08-23T15:52:13.358Z,96401.70
2018-08-23T15:53:52.808Z,96405.62
2018-08-23T15:55:30.307Z,96398.06
2018-08-23T15:57:07.583Z,96396.00
2018-08-23T15:58:44.294Z,96397.29
2018-08-23T16:00:33.260Z,96398.19
2018-08-23T16:02:10.345Z,96407.39
2018-08-23T16:03:47.448Z,96410.42
2018-08-23T16:05:23.667Z,96410.60
2018-08-23T16:07:00.091Z,96405.20
2018-08-23T16:08:42.921Z,96406.92
2018-08-23T16:10:19.957Z,96396.43
2018-08-23T16:11:57.765Z,96400.33
2018-08-23T16:13:35.322Z,96395.18
2018-08-23T16:15:19.379Z,96399.66
2018-08-23T16:21:14.369Z,96399.84
2018-08-23T16:22:53.306Z,96406.05
2018-08-23T16:24:30.776Z,96400.00
2018-08-23T16:26:06.408Z,96395.55
2018-08-23T16:27:43.346Z,96397.56
2018-08-23T16:29:20.004Z,96406.70
2018-08-23T16:30:58.954Z,96407.03
2018-08-23T16:32:35.629Z,96398.43
2018-08-23T16:34:12.654Z,96400.91
2018-08-23T16:35:51.316Z,96397.13
2018-08-23T16:37:31.825Z,96401.55
2018-08-23T16:39:10.608Z,96402.08
2018-08-23T16:40:52.497Z,96392.06
2018-08-23T16:42:33.985Z,96404.08
2018-08-23T16:44:14.554Z,96395.58
2018-08-23T16:45:52.535Z,96402.44
2018-08-23T16:47:29.956Z,96403.87
2018-08-23T16:49:08.998Z,96398.78
2018-08-23T16:50:54.243Z,96405.57
2018-08-23T16:52:30.341Z,96404.47
2018-08-23T16:54:06.254Z,96406.09
2018-08-23T16:55:45.231Z,96406.53
2018-08-23T16:57:21.863Z,96404.44
2018-08-23T16:59:00.321Z,96409.98
2018-08-23T17:00:40.881Z,96404.05
2018-08-23T17:02:18.113Z,96412.02
2018-08-23T17:04:00.512Z,96415.56
2018-08-23T17:05:44.707Z,96409.12
2018-08-23T17:07:22.423Z,96404.80
2018-08-23T17:09:06.620Z,96395.30
2018-08-23T17:10:43.291Z,96401.90
2018-08-23T17:12:21.426Z,96398.80
2018-08-23T17:13:59.350Z,96391.94
2018-08-23T17:15:41.578Z,96389.84
2018-08-23T17:17:23.761Z,96393.76
2018-08-23T17:19:00.832Z,96389.25
2018-08-23T17:20:36.429Z,96393.22
2018-08-23T17:22:16.039Z,96388.13
2018-08-23T17:24:13.697Z,96386.74
2018-08-23T17:25:59.572Z,96381.63
2018-08-23T17:27:37.475Z,96379.91
2018-08-23T17:29:17.253Z,96383.78
2018-08-23T17:30:58.679Z,96378.02
2018-08-23T17:32:37.803Z,96381.77
2018-08-23T17:34:17.270Z,96375.42
2018-08-23T17:35:55.548Z,96376.06
2018-08-23T17:37:33.065Z,96377.14
2018-08-23T17:39:12.342Z,96371.23
2018-08-23T17:40:52.064Z,96373.59
2018-08-23T17:42:37.780Z,96373.70
2018-08-23T17:44:18.333Z,96379.17
2018-08-23T17:45:59.567Z,96380.25
2018-08-23T17:47:38.529Z,96369.09
2018-08-23T17:49:18.354Z,96377.60
2018-08-23T17:50:58.142Z,96374.31
2018-08-23T17:52:35.508Z,96375.30
2018-08-23T17:54:14.948Z,96380.98
2018-08-23T17:56:01.593Z,96378.44
2018-08-23T17:57:39.118Z,96383.90
2018-08-23T17:59:20.224Z,96382.40
2018-08-23T18:01:00.453Z,96391.11
2018-08-23T18:02:40.237Z,96388.73
2018-08-23T18:04:20.182Z,96382.33
2018-08-23T18:06:05.340Z,96384.36
2018-08-23T18:07:46.226Z,96384.43
2018-08-23T18:09:27.496Z,96385.73
2018-08-23T18:11:08.591Z,96388.61
2018-08-23T18:12:55.522Z,96388.06
2018-08-23T18:14:37.355Z,96392.46
2018-08-23T18:16:21.654Z,96381.11
2018-08-23T18:18:00.342Z,96388.52
2018-08-23T18:19:43.471Z,96389.13
2018-08-23T18:21:24.008Z,96392.23
2018-08-23T18:23:05.160Z,96392.96
2018-08-23T18:24:41.431Z,96391.88
2018-08-23T18:26:26.719Z,96392.73
2018-08-23T18:28:06.248Z,96396.88
2018-08-23T18:29:44.323Z,96383.91
2018-08-23T18:31:25.344Z,96392.03
2018-08-23T18:33:03.667Z,96393.35
2018-08-23T18:34:41.446Z,96395.90
2018-08-23T18:36:21.142Z,96398.87
2018-08-23T18:38:03.937Z,96396.07
2018-08-23T18:39:43.345Z,96397.88
2018-08-23T18:41:25.512Z,96405.22
2018-08-23T18:43:04.816Z,96400.25
2018-08-23T18:44:41.247Z,96404.92
2018-08-23T18:46:19.471Z,96404.58
2018-08-23T18:47:58.130Z,96408.09
2018-08-23T18:49:36.310Z,96409.89
2018-08-23T18:51:18.625Z,96411.69
2018-08-23T18:52:56.152Z,96415.33
2018-08-23T18:54:34.552Z,96423.21
2018-08-23T18:56:17.458Z,96420.00
2018-08-23T18:58:05.104Z,96422.66
2018-08-23T18:59:45.757Z,96424.60
2018-08-23T19:01:27.449Z,96423.33
2018-08-23T19:03:06.650Z,96425.13
2018-08-23T19:04:44.491Z,96430.12
2018-08-23T19:06:22.161Z,96437.25
2018-08-23T19:08:13.594Z,96428.56
2018-08-23T19:09:50.450Z,96431.02
2018-08-23T19:11:31.912Z,96427.13
2018-08-23T19:13:11.460Z,96430.48
2018-08-23T19:14:51.404Z,96427.94
2018-08-23T19:16:32.602Z,96430.04
2018-08-23T19:18:10.423Z,96426.91
2018-08-23T19:19:59.549Z,96427.42
2018-08-23T19:21:35.463Z,96429.80
2018-08-23T19:23:13.266Z,96429.17
2018-08-23T19:24:52.489Z,96425.12
2018-08-23T19:26:35.870Z,96424.25
2018-08-23T19:28:34.423Z,96431.08
2018-08-23T19:30:15.144Z,96430.60
2018-08-23T19:31:58.139Z,96433.45
2018-08-23T19:33:33.216Z,96429.69
2018-08-23T19:35:12.552Z,96434.01
2018-08-23T19:36:48.855Z,96432.69
2018-08-23T19:38:27.726Z,96428.33
2018-08-23T19:41:50.527Z,96429.27
2018-08-23T19:43:28.577Z,96428.91
2018-08-23T19:45:16.455Z,96428.03
2018-08-23T19:46:56.998Z,96429.97
2018-08-23T19:48:41.512Z,96430.48
2018-08-23T19:50:21.029Z,96431.23
2018-08-23T19:51:56.602Z,96427.19
2018-08-23T19:53:35.225Z,96423.12
2018-08-23T19:55:15.247Z,96423.78
2018-08-23T19:56:58.477Z,96427.19
2018-08-23T19:58:37.684Z,96434.52
2018-08-23T20:02:04.005Z,96426.11
2018-08-23T20:03:42.848Z,96430.27